createdAt,value
2022-11-22T00:00:10.614Z,35.75
2022-11-22T00:02:37.073Z,33.95
2022-11-22T00:05:03.918Z,31.25
2022-11-22T00:07:30.405Z,34.30
2022-11-22T00:09:56.876Z,32.65
2022-11-22T00:12:23.416Z,30.92
2022-11-22T00:14:55.463Z,35.03
2022-11-22T00:17:23.213Z,32.35
2022-11-22T00:19:49.599Z,30.75
2022-11-22T00:22:16.281Z,32.60
2022-11-22T00:24:44.047Z,33.75
2022-11-22T00:27:10.408Z,30.98
2022-11-22T00:29:36.809Z,32.33
2022-11-22T00:32:03.543Z,32.60
2022-11-22T00:34:29.973Z,33.78
2022-11-22T00:36:56.432Z,32.03
2022-11-22T00:39:22.875Z,32.45
2022-11-22T00:41:49.263Z,31.63
2022-11-22T00:44:15.743Z,33.70
2022-11-22T00:46:42.150Z,35.20
2022-11-22T00:49:08.546Z,35.38
2022-11-22T00:51:34.987Z,36.13
2022-11-22T00:54:01.484Z,34.05
2022-11-22T00:56:28.328Z,34.92
2022-11-22T00:58:54.718Z,34.22
2022-11-22T01:01:21.172Z,34.97
2022-11-22T01:03:47.700Z,34.55
2022-11-22T01:06:14.078Z,35.10
2022-11-22T01:08:40.495Z,36.00
2022-11-22T01:11:06.871Z,33.88
2022-11-22T01:13:33.351Z,34.85
2022-11-22T01:16:05.935Z,35.30
2022-11-22T01:18:33.097Z,33.90
2022-11-22T01:20:59.480Z,34.03
2022-11-22T01:23:26.018Z,36.90
2022-11-22T01:25:52.463Z,36.33
2022-11-22T01:28:19.324Z,38.75
2022-11-22T01:30:49.570Z,37.13
2022-11-22T01:35:42.835Z,33.53
2022-11-22T01:38:09.608Z,38.70
2022-11-22T01:40:36.075Z,34.88
2022-11-22T01:43:04.016Z,36.55
2022-11-22T01:45:30.391Z,38.13
2022-11-22T01:48:04.190Z,40.67
2022-11-22T01:50:35.173Z,34.10
2022-11-22T01:53:14.490Z,36.58
2022-11-22T01:55:41.812Z,36.03
2022-11-22T01:58:10.378Z,36.03
2022-11-22T02:00:38.755Z,34.22
2022-11-22T02:03:09.627Z,33.67
2022-11-22T02:05:36.246Z,35.83
2022-11-22T02:08:27.270Z,37.28
2022-11-22T02:10:56.287Z,34.72
2022-11-22T02:13:24.438Z,34.30
2022-11-22T02:15:52.250Z,35.80
2022-11-22T02:18:19.330Z,37.67
2022-11-22T02:20:45.918Z,37.90
2022-11-22T02:23:31.641Z,40.08
2022-11-22T02:25:59.983Z,36.40
2022-11-22T02:28:30.145Z,38.13
2022-11-22T02:33:23.297Z,37.25
2022-11-22T02:35:49.882Z,37.35
2022-11-22T02:38:25.996Z,35.97
2022-11-22T02:40:57.032Z,38.33
2022-11-22T02:43:45.707Z,39.50
2022-11-22T02:46:23.424Z,40.38
2022-11-22T02:48:50.000Z,39.50
2022-11-22T02:51:19.696Z,37.70
2022-11-22T02:53:48.033Z,38.92
2022-11-22T02:56:15.554Z,37.88
2022-11-22T02:58:43.461Z,38.78
2022-11-22T03:01:10.435Z,38.20
2022-11-22T03:03:38.414Z,37.35
2022-11-22T03:06:04.901Z,36.30
2022-11-22T03:08:31.339Z,36.38
2022-11-22T03:10:59.015Z,37.30
2022-11-22T03:13:26.210Z,34.60
2022-11-22T03:15:52.939Z,38.40
2022-11-22T03:18:19.467Z,37.20
2022-11-22T03:20:45.892Z,39.63
2022-11-22T03:23:12.406Z,37.47
2022-11-22T03:25:39.555Z,40.60
2022-11-22T03:28:06.362Z,35.92
2022-11-22T03:30:32.908Z,36.33
2022-11-22T03:32:59.282Z,37.97
2022-11-22T03:35:25.671Z,39.83
2022-11-22T03:37:52.127Z,36.72
2022-11-22T03:40:18.540Z,40.45
2022-11-22T03:42:44.981Z,39.90
2022-11-22T03:45:11.396Z,39.45
2022-11-22T03:47:37.789Z,36.55
2022-11-22T03:50:05.328Z,38.22
2022-11-22T03:52:31.744Z,36.22
2022-11-22T03:54:58.155Z,41.88
2022-11-22T03:57:24.570Z,37.80
2022-11-22T03:59:50.970Z,40.00
2022-11-22T04:02:17.476Z,39.53
2022-11-22T04:04:44.223Z,39.22
2022-11-22T04:07:10.695Z,40.25
2022-11-22T04:09:37.208Z,40.17
2022-11-22T04:12:04.056Z,38.70
2022-11-22T04:14:49.161Z,38.33
2022-11-22T04:17:35.798Z,40.90
2022-11-22T04:20:20.755Z,38.03
2022-11-22T04:22:56.021Z,36.83
2022-11-22T04:25:22.727Z,38.30
2022-11-22T04:27:49.133Z,38.33
2022-11-22T04:30:20.289Z,39.17
2022-11-22T04:32:47.462Z,36.35
2022-11-22T04:35:16.739Z,36.28
2022-11-22T04:37:43.249Z,38.37
2022-11-22T04:40:10.349Z,36.28
2022-11-22T04:42:55.367Z,36.83
2022-11-22T04:45:21.831Z,34.92
2022-11-22T04:48:00.298Z,37.53
2022-11-22T04:50:47.353Z,36.55
2022-11-22T04:53:14.968Z,36.17
2022-11-22T04:55:42.572Z,39.10
2022-11-22T04:58:09.325Z,41.83
2022-11-22T05:00:36.043Z,38.53
2022-11-22T05:03:03.801Z,39.47
2022-11-22T05:05:30.450Z,39.08
2022-11-22T05:07:58.510Z,36.38
2022-11-22T05:10:27.032Z,39.38
2022-11-22T05:12:54.363Z,37.17
2022-11-22T05:15:20.810Z,36.22
2022-11-22T05:17:47.303Z,38.58
2022-11-22T05:20:14.033Z,39.20
2022-11-22T05:22:59.237Z,38.10
2022-11-22T05:25:25.966Z,39.50
2022-11-22T05:27:55.319Z,41.17
2022-11-22T05:30:21.748Z,41.00
2022-11-22T05:32:48.226Z,36.58
2022-11-22T05:35:14.728Z,39.50
2022-11-22T05:37:41.131Z,37.67
2022-11-22T05:40:08.264Z,37.30
2022-11-22T05:42:35.498Z,36.90
2022-11-22T05:45:01.943Z,36.53
2022-11-22T05:47:28.430Z,38.08
2022-11-22T05:49:54.799Z,39.80
2022-11-22T05:52:21.332Z,42.17
2022-11-22T05:54:47.750Z,38.58
2022-11-22T05:57:14.123Z,43.15
2022-11-22T05:59:44.126Z,37.90
2022-11-22T06:04:37.210Z,37.47
2022-11-22T06:07:08.487Z,37.58
2022-11-22T06:09:36.686Z,42.50
2022-11-22T06:12:03.813Z,40.42
2022-11-22T06:14:30.224Z,41.10
2022-11-22T06:16:56.811Z,42.47
2022-11-22T06:19:23.220Z,43.20
2022-11-22T06:21:49.690Z,41.08
2022-11-22T06:24:16.123Z,40.88
2022-11-22T06:26:42.516Z,46.63
2022-11-22T06:29:08.984Z,42.20
2022-11-22T06:31:35.582Z,45.92
2022-11-22T06:34:02.006Z,44.28
2022-11-22T06:36:30.488Z,46.13
2022-11-22T06:38:57.898Z,44.88
2022-11-22T06:41:26.898Z,44.78
2022-11-22T06:43:57.417Z,42.58
2022-11-22T06:46:25.393Z,43.25
2022-11-22T06:48:52.453Z,43.10
2022-11-22T06:51:27.103Z,43.38
2022-11-22T06:53:57.579Z,43.30
2022-11-22T06:56:27.512Z,41.58
2022-11-22T06:58:54.636Z,46.72
2022-11-22T07:01:28.768Z,45.75
2022-11-22T07:03:58.331Z,43.63
2022-11-22T07:06:30.905Z,45.10
2022-11-22T07:08:57.516Z,44.65
2022-11-22T07:11:26.511Z,44.80
2022-11-22T07:13:54.048Z,45.13
2022-11-22T07:16:21.817Z,44.15
2022-11-22T07:18:48.949Z,43.13
2022-11-22T07:21:21.230Z,44.70
2022-11-22T07:23:49.371Z,43.65
2022-11-22T07:26:17.099Z,43.05
2022-11-22T07:28:44.273Z,44.53
2022-11-22T07:31:13.322Z,45.33
2022-11-22T07:33:40.262Z,41.55
2022-11-22T07:36:12.596Z,44.35
2022-11-22T07:38:39.514Z,43.83
2022-11-22T07:41:07.032Z,41.78
2022-11-22T07:43:34.061Z,42.47
2022-11-22T07:46:05.594Z,46.35
2022-11-22T07:48:32.793Z,44.17
2022-11-22T07:51:05.047Z,46.05
2022-11-22T07:53:31.989Z,44.00
2022-11-22T07:56:04.971Z,48.05
2022-11-22T07:58:32.293Z,45.28
2022-11-22T08:00:58.889Z,45.20
2022-11-22T08:03:28.818Z,45.42
2022-11-22T08:06:03.554Z,46.90
2022-11-22T08:08:34.536Z,46.88
2022-11-22T08:11:01.571Z,43.40
2022-11-22T08:13:28.921Z,47.65
2022-11-22T08:15:57.537Z,46.88
2022-11-22T08:18:26.093Z,45.25
2022-11-22T08:21:01.533Z,46.35
2022-11-22T08:23:28.063Z,44.75
2022-11-22T08:25:58.951Z,44.50
2022-11-22T08:28:26.184Z,47.30
2022-11-22T08:30:58.391Z,44.60
2022-11-22T08:33:24.866Z,45.83
2022-11-22T08:35:51.877Z,44.45
2022-11-22T08:38:18.520Z,43.90
2022-11-22T08:40:45.261Z,46.75
2022-11-22T08:43:11.904Z,46.95
2022-11-22T08:45:39.084Z,45.22
2022-11-22T08:48:05.907Z,46.15
2022-11-22T08:50:32.551Z,48.28
2022-11-22T08:53:01.430Z,46.47
2022-11-22T08:55:27.894Z,43.75
2022-11-22T08:57:58.926Z,44.85
2022-11-22T09:00:30.069Z,43.08
2022-11-22T09:02:59.470Z,44.30
2022-11-22T09:05:25.998Z,44.00
2022-11-22T09:10:38.850Z,46.55
2022-11-22T09:13:05.313Z,42.88
2022-11-22T09:15:31.919Z,43.42
2022-11-22T09:18:02.923Z,42.85
2022-11-22T09:20:29.392Z,45.33
2022-11-22T09:22:55.818Z,46.47
2022-11-22T09:25:22.458Z,44.75
2022-11-22T09:27:48.884Z,44.88
2022-11-22T09:30:15.666Z,42.85
2022-11-22T09:32:44.407Z,45.25
2022-11-22T09:35:10.901Z,44.92
2022-11-22T09:37:37.315Z,42.95
2022-11-22T09:40:04.079Z,45.35
2022-11-22T09:42:50.117Z,43.80
2022-11-22T09:45:25.395Z,44.40
2022-11-22T09:47:51.985Z,44.20
2022-11-22T09:50:57.677Z,44.28
2022-11-22T09:53:35.224Z,44.17
2022-11-22T09:56:08.380Z,47.25
2022-11-22T09:58:44.051Z,45.00
2022-11-22T10:01:12.918Z,44.95
2022-11-22T10:03:48.794Z,43.50
2022-11-22T10:06:27.429Z,45.13
2022-11-22T10:09:18.430Z,46.50
2022-11-22T10:12:11.287Z,49.78
2022-11-22T10:15:05.925Z,42.53
2022-11-22T10:17:38.843Z,43.25
2022-11-22T10:20:17.024Z,42.70
2022-11-22T10:22:43.861Z,42.85
2022-11-22T10:25:21.172Z,43.10
2022-11-22T10:28:00.364Z,45.75
2022-11-22T10:30:34.712Z,42.63
2022-11-22T10:33:17.050Z,43.40
2022-11-22T10:35:58.457Z,43.75
2022-11-22T10:38:47.256Z,43.92
2022-11-22T10:41:39.888Z,43.45
2022-11-22T10:44:35.938Z,40.60
2022-11-22T10:47:09.855Z,46.40
2022-11-22T10:50:03.512Z,44.20
2022-11-22T10:52:38.059Z,42.97
2022-11-22T10:55:25.773Z,43.10
2022-11-22T10:58:15.190Z,40.78
2022-11-22T11:00:47.569Z,41.57
2022-11-22T11:03:26.192Z,43.05
2022-11-22T11:07:04.601Z,44.95
2022-11-22T11:12:40.005Z,40.75
2022-11-22T11:15:28.548Z,43.40
2022-11-22T11:18:17.530Z,43.28
2022-11-22T11:20:46.540Z,47.40
2022-11-22T11:23:15.513Z,42.85
2022-11-22T11:25:47.574Z,43.22
2022-11-22T11:28:26.710Z,45.17
2022-11-22T11:31:07.367Z,45.45
2022-11-22T11:33:38.342Z,41.50
2022-11-22T11:36:19.306Z,44.15
2022-11-22T11:38:45.701Z,42.50
2022-11-22T11:41:36.151Z,48.47
2022-11-22T11:44:05.841Z,44.65
2022-11-22T11:46:52.499Z,42.53
2022-11-22T11:49:24.263Z,44.42
2022-11-22T11:51:56.407Z,46.97
2022-11-22T11:54:29.628Z,42.83
2022-11-22T11:56:57.767Z,43.75
2022-11-22T11:59:46.550Z,42.88
2022-11-22T12:02:25.069Z,44.50
2022-11-22T12:04:54.269Z,46.67
2022-11-22T12:07:27.655Z,43.75
2022-11-22T12:09:55.763Z,43.78
2022-11-22T12:12:43.869Z,44.95
2022-11-22T12:15:35.232Z,44.15
2022-11-22T12:18:12.269Z,44.80
2022-11-22T12:21:07.465Z,43.72
2022-11-22T12:23:50.972Z,43.13
2022-11-22T12:26:18.829Z,41.03
2022-11-22T12:28:46.599Z,44.15
2022-11-22T12:31:24.078Z,42.50
2022-11-22T12:33:56.285Z,41.42
2022-11-22T12:36:32.707Z,42.40
2022-11-22T12:39:02.729Z,43.58
2022-11-22T12:41:33.104Z,42.42
2022-11-22T12:44:04.788Z,44.53
2022-11-22T12:46:42.176Z,41.95
2022-11-22T12:49:29.929Z,43.58
2022-11-22T12:52:04.050Z,42.83
2022-11-22T12:54:37.256Z,43.35
2022-11-22T12:57:15.806Z,41.20
2022-11-22T13:00:03.029Z,42.00
2022-11-22T13:02:37.406Z,40.53
2022-11-22T13:05:23.730Z,41.75
2022-11-22T13:08:02.849Z,40.08
2022-11-22T13:10:38.603Z,41.28
2022-11-22T13:13:13.219Z,40.38
2022-11-22T13:15:40.783Z,40.20
2022-11-22T13:18:09.768Z,40.70
2022-11-22T13:20:43.199Z,39.13
2022-11-22T13:23:37.376Z,41.55
2022-11-22T13:26:15.152Z,41.33
2022-11-22T13:28:43.445Z,39.60
2022-11-22T13:31:09.799Z,37.25
2022-11-22T13:33:39.505Z,44.72
2022-11-22T13:36:24.725Z,39.00
2022-11-22T13:38:59.480Z,40.30
2022-11-22T13:41:37.139Z,39.40
2022-11-22T13:44:39.148Z,37.97
2022-11-22T13:47:28.370Z,44.55
2022-11-22T13:49:54.914Z,40.97
2022-11-22T13:52:21.274Z,42.55
2022-11-22T13:54:47.861Z,39.70
2022-11-22T13:57:37.406Z,45.72
2022-11-22T14:00:09.972Z,39.77
2022-11-22T14:02:37.871Z,38.40
2022-11-22T14:05:18.291Z,41.40
2022-11-22T14:07:45.422Z,38.95
2022-11-22T14:10:32.837Z,40.42
2022-11-22T14:13:29.788Z,40.60
2022-11-22T14:16:11.462Z,39.90
2022-11-22T14:18:54.743Z,40.15
2022-11-22T14:21:42.395Z,41.55
2022-11-22T14:24:08.756Z,38.50
2022-11-22T14:26:52.543Z,40.33
2022-11-22T14:29:58.354Z,42.55
2022-11-22T14:32:26.457Z,41.38
2022-11-22T14:35:05.024Z,40.22
2022-11-22T14:37:31.862Z,39.15
2022-11-22T14:40:04.269Z,42.25
2022-11-22T14:42:36.964Z,41.30
2022-11-22T14:45:12.484Z,41.33
2022-11-22T14:47:53.118Z,38.70
2022-11-22T14:50:45.892Z,39.95
2022-11-22T14:53:21.703Z,41.42
2022-11-22T14:55:49.221Z,38.60
2022-11-22T14:58:23.033Z,41.92
2022-11-22T15:01:15.135Z,39.83
2022-11-22T15:09:12.787Z,40.83
2022-11-22T15:09:19.843Z,41.70
2022-11-22T15:10:33.268Z,44.53
2022-11-22T15:13:15.563Z,39.80
2022-11-22T15:59:39.440Z,40.80
2022-11-22T16:02:21.178Z,40.45
2022-11-22T16:06:06.459Z,39.33
2022-11-22T16:10:37.590Z,41.40
2022-11-22T16:13:34.347Z,45.65
2022-11-22T16:16:12.627Z,41.75
2022-11-22T16:18:40.146Z,43.03
2022-11-22T16:21:20.378Z,41.58
2022-11-22T16:26:22.119Z,44.88
2022-11-22T16:28:51.406Z,44.47
2022-11-22T16:31:20.143Z,39.70
2022-11-22T16:33:46.655Z,40.17
2022-11-22T16:36:15.075Z,40.03
2022-11-22T16:38:42.622Z,42.22
2022-11-22T16:41:29.388Z,42.22
2022-11-22T16:44:06.281Z,43.97
2022-11-22T16:46:32.774Z,44.60
2022-11-22T16:48:59.234Z,40.88
2022-11-22T16:51:30.558Z,42.80
2022-11-22T16:53:59.811Z,42.38
2022-11-22T16:56:28.974Z,42.00
2022-11-22T16:58:57.065Z,44.72
2022-11-22T17:01:26.480Z,45.65
2022-11-22T17:03:56.293Z,40.90
2022-11-22T17:06:27.618Z,45.75
2022-11-22T17:08:56.126Z,42.85
2022-11-22T17:11:24.699Z,45.65
2022-11-22T17:13:51.358Z,41.75
2022-11-22T17:16:17.879Z,40.65
2022-11-22T17:18:45.807Z,43.50
2022-11-22T17:21:26.153Z,43.75
2022-11-22T17:23:56.061Z,45.55
2022-11-22T17:26:22.813Z,39.10
2022-11-22T17:28:49.245Z,38.85
2022-11-22T17:31:18.054Z,38.10
2022-11-22T17:33:44.803Z,41.83
2022-11-22T17:36:22.145Z,41.97
2022-11-22T17:38:48.602Z,46.15
2022-11-22T17:41:15.036Z,40.88
2022-11-22T17:43:41.603Z,42.75
2022-11-22T17:46:08.123Z,42.33
2022-11-22T17:48:34.614Z,42.67
2022-11-22T17:51:08.887Z,41.45
2022-11-22T17:53:35.737Z,42.85
2022-11-22T17:56:10.552Z,42.80
2022-11-22T17:58:38.539Z,40.08
2022-11-22T18:01:21.060Z,41.10
2022-11-22T18:03:48.319Z,40.50
2022-11-22T18:06:16.655Z,39.97
2022-11-22T18:08:46.952Z,43.20
2022-11-22T18:11:14.876Z,43.47
2022-11-22T18:13:41.785Z,40.25
2022-11-22T18:16:12.150Z,39.25
2022-11-22T18:21:30.435Z,43.47
2022-11-22T18:23:58.323Z,38.25
2022-11-22T18:26:41.400Z,40.85
2022-11-22T18:29:40.745Z,41.60
2022-11-22T18:31:56.419Z,41.33
2022-11-22T18:34:23.227Z,41.60
2022-11-22T18:36:55.928Z,45.40
2022-11-22T18:39:26.177Z,44.72
2022-11-22T18:41:52.570Z,40.13
2022-11-22T18:44:19.520Z,42.40
2022-11-22T18:46:46.775Z,44.50
2022-11-22T18:49:13.247Z,43.00
2022-11-22T18:51:39.919Z,39.63
2022-11-22T18:54:06.382Z,42.83
2022-11-22T18:56:37.718Z,38.50
2022-11-22T18:59:06.171Z,40.58
2022-11-22T19:01:34.508Z,44.42
2022-11-22T19:04:01.721Z,41.67
2022-11-22T19:06:28.372Z,37.97
2022-11-22T19:08:55.308Z,42.35
2022-11-22T19:11:22.026Z,40.33
2022-11-22T19:13:48.487Z,41.50
2022-11-22T19:16:17.273Z,40.53
2022-11-22T19:18:44.957Z,45.22
2022-11-22T19:21:14.502Z,45.38
2022-11-22T19:23:41.219Z,41.85
2022-11-22T19:26:10.694Z,38.72
2022-11-22T19:28:37.607Z,44.25
2022-11-22T19:31:07.711Z,40.20
2022-11-22T19:33:34.797Z,40.83
2022-11-22T19:36:06.532Z,40.88
2022-11-22T19:38:33.239Z,42.28
2022-11-22T19:40:59.748Z,41.00
2022-11-22T19:43:26.159Z,40.38
2022-11-22T19:45:52.602Z,40.00
2022-11-22T19:48:19.129Z,40.80
2022-11-22T19:50:45.904Z,39.13
2022-11-22T19:53:12.339Z,40.03
2022-11-22T19:55:45.171Z,42.28
2022-11-22T19:58:12.085Z,42.25
2022-11-22T20:00:38.596Z,42.17
2022-11-22T20:03:05.015Z,43.30
2022-11-22T20:05:32.525Z,43.10
2022-11-22T20:07:59.431Z,42.55
2022-11-22T20:10:25.969Z,42.83
2022-11-22T20:12:52.462Z,41.58
2022-11-22T20:15:19.068Z,40.97
2022-11-22T20:17:45.542Z,39.83
2022-11-22T20:20:11.969Z,41.83
2022-11-22T20:22:38.341Z,40.97
2022-11-22T20:25:06.027Z,42.30
2022-11-22T20:27:32.655Z,44.67
2022-11-22T20:30:01.335Z,41.55
2022-11-22T20:32:28.914Z,44.38
2022-11-22T20:34:55.299Z,43.33
2022-11-22T20:37:22.011Z,40.72
2022-11-22T20:39:48.442Z,39.47
2022-11-22T20:45:01.498Z,45.90
2022-11-22T20:47:27.899Z,42.65
2022-11-22T20:49:54.293Z,43.58
2022-11-22T20:52:20.772Z,43.42
2022-11-22T20:54:47.258Z,40.95
2022-11-22T20:57:13.850Z,42.25
2022-11-22T20:59:40.296Z,41.78
2022-11-22T21:02:09.316Z,41.03
2022-11-22T21:04:36.167Z,42.17
2022-11-22T21:07:02.666Z,45.42
2022-11-22T21:09:29.225Z,42.20
2022-11-22T21:11:55.943Z,43.10
2022-11-22T21:14:22.338Z,45.30
2022-11-22T21:16:48.777Z,42.70
2022-11-22T21:19:15.300Z,43.92
2022-11-22T21:21:41.705Z,45.03
2022-11-22T21:24:11.574Z,43.92
2022-11-22T21:26:38.005Z,44.60
2022-11-22T21:29:12.895Z,45.83
2022-11-22T21:31:42.297Z,44.60
2022-11-22T21:34:09.239Z,43.22
2022-11-22T21:36:35.681Z,43.28
2022-11-22T21:39:02.097Z,43.03
2022-11-22T21:41:43.831Z,45.72
2022-11-22T21:44:10.813Z,44.25
2022-11-22T21:46:38.078Z,51.35
2022-11-22T21:49:04.638Z,46.50
2022-11-22T21:51:32.020Z,46.08
2022-11-22T21:54:02.160Z,42.75
2022-11-22T21:56:28.787Z,43.55
2022-11-22T21:58:55.334Z,46.33
2022-11-22T22:01:22.521Z,45.47
2022-11-22T22:03:49.184Z,44.65
2022-11-22T22:06:15.669Z,45.83
2022-11-22T22:08:42.439Z,47.63
2022-11-22T22:11:08.857Z,45.08
2022-11-22T22:13:35.416Z,46.92
2022-11-22T22:16:06.625Z,42.85
2022-11-22T22:18:35.559Z,41.47
2022-11-22T22:21:03.941Z,42.67
2022-11-22T22:23:30.768Z,40.33
2022-11-22T22:26:02.152Z,41.58
2022-11-22T22:28:30.225Z,43.63
2022-11-22T22:31:10.854Z,43.80
2022-11-22T22:33:39.655Z,42.17
2022-11-22T22:36:07.329Z,41.80
2022-11-22T22:38:34.604Z,46.42
2022-11-22T22:41:03.696Z,41.10
2022-11-22T22:43:32.785Z,42.30
2022-11-22T22:46:06.496Z,42.83
2022-11-22T22:48:33.927Z,42.88
2022-11-22T22:51:05.440Z,41.58
2022-11-22T22:53:31.907Z,42.13
2022-11-22T22:55:58.468Z,42.08
2022-11-22T22:58:24.843Z,41.33
2022-11-22T23:00:51.273Z,42.60
2022-11-22T23:03:17.787Z,40.75
2022-11-22T23:05:45.019Z,41.70
2022-11-22T23:08:11.596Z,40.55
2022-11-22T23:10:38.822Z,41.90
2022-11-22T23:13:05.707Z,40.38
2022-11-22T23:15:51.123Z,41.70
2022-11-22T23:18:18.618Z,42.83
2022-11-22T23:20:44.989Z,42.33
2022-11-22T23:23:11.388Z,41.90
2022-11-22T23:25:37.841Z,40.78
2022-11-22T23:28:04.493Z,38.97
2022-11-22T23:30:30.918Z,39.72
2022-11-22T23:32:57.436Z,38.83
2022-11-22T23:35:23.835Z,42.45
2022-11-22T23:37:50.222Z,43.38
2022-11-22T23:40:16.892Z,37.67
2022-11-22T23:42:43.260Z,38.05
2022-11-22T23:45:10.050Z,38.85
2022-11-22T23:47:36.435Z,37.95
2022-11-22T23:50:03.341Z,40.20
2022-11-22T23:52:29.927Z,39.10
2022-11-22T23:54:56.377Z,36.60
2022-11-22T23:57:22.780Z,43.10
2022-11-22T23:59:49.176Z,39.28
